CFG3NP LGSA-EDDM
Flight info
| Callsign | CFG3NP |
|---|---|
| Flight time | N/A |
| Altitude | 34000 |
| Route | SOKRI UB1 DDM UM619 YNN UL611 TUMBO DCT TAZ DCT NAVSU DCT GORPA DCT RASTA DCT REDBU Q112 NAPSA NAPSA4A |
| Aircraft | A321/M-SDE3FGHIRWY/LB1 |
Departure
| Time | N/A |
|---|---|
| Airport | Chania International Airport (LGSA) |
Arrival
| Time | 2026-05-06 17:16 |
|---|---|
| Airport | Munich Airport (EDDM) |
| Time | Latitude | Longitude | Altitude | Speed | Heading |
|---|---|---|---|---|---|
| 2026-05-06 16:30 | 44.90560 | 16.45932 | 33945 ft | 426 kts | 314° |
| 2026-05-06 16:30 | 44.92780 | 16.43154 | 33948 ft | 427 kts | 314° |
| 2026-05-06 16:31 | 44.97184 | 16.37655 | 33946 ft | 427 kts | 314° |
| 2026-05-06 16:31 | 45.01620 | 16.32101 | 33946 ft | 427 kts | 314° |
| 2026-05-06 16:32 | 45.06055 | 16.26528 | 33947 ft | 427 kts | 314° |
| 2026-05-06 16:32 | 45.10488 | 16.20943 | 33943 ft | 427 kts | 314° |
| 2026-05-06 16:33 | 45.14922 | 16.15352 | 33942 ft | 427 kts | 314° |
| 2026-05-06 16:34 | 45.21568 | 16.06949 | 33942 ft | 427 kts | 314° |
| 2026-05-06 16:34 | 45.25993 | 16.01345 | 33939 ft | 427 kts | 314° |
| 2026-05-06 16:35 | 45.30415 | 15.95722 | 33936 ft | 427 kts | 314° |
| 2026-05-06 16:35 | 45.34836 | 15.90080 | 33931 ft | 427 kts | 314° |
| 2026-05-06 16:36 | 45.39252 | 15.84435 | 33930 ft | 427 kts | 314° |
| 2026-05-06 16:36 | 45.43665 | 15.78781 | 33934 ft | 427 kts | 314° |
| 2026-05-06 16:37 | 45.48084 | 15.73121 | 33934 ft | 427 kts | 314° |
| 2026-05-06 16:37 | 45.52502 | 15.67449 | 33934 ft | 427 kts | 314° |
| 2026-05-06 16:38 | 45.56914 | 15.61767 | 33921 ft | 427 kts | 314° |
| 2026-05-06 16:38 | 45.61324 | 15.56060 | 33918 ft | 428 kts | 314° |
| 2026-05-06 16:39 | 45.65739 | 15.50345 | 33924 ft | 428 kts | 314° |
| 2026-05-06 16:39 | 45.70162 | 15.44633 | 33922 ft | 429 kts | 314° |
| 2026-05-06 16:40 | 45.74584 | 15.38892 | 33924 ft | 429 kts | 314° |
| 2026-05-06 16:40 | 45.79038 | 15.33197 | 33928 ft | 430 kts | 316° |
| 2026-05-06 16:41 | 45.83774 | 15.27925 | 33930 ft | 432 kts | 320° |
| 2026-05-06 16:41 | 45.88610 | 15.22822 | 33931 ft | 432 kts | 320° |
| 2026-05-06 16:42 | 45.93413 | 15.17623 | 33933 ft | 431 kts | 318° |
| 2026-05-06 16:42 | 45.98156 | 15.12347 | 33938 ft | 431 kts | 318° |
| 2026-05-06 16:43 | 46.02893 | 15.07058 | 33936 ft | 431 kts | 318° |
| 2026-05-06 16:43 | 46.07646 | 15.01768 | 33931 ft | 431 kts | 318° |
| 2026-05-06 16:44 | 46.12390 | 14.96479 | 33940 ft | 432 kts | 318° |
| 2026-05-06 16:44 | 46.17101 | 14.91203 | 33939 ft | 432 kts | 318° |
| 2026-05-06 16:45 | 46.21875 | 14.85849 | 33938 ft | 431 kts | 318° |
| 2026-05-06 16:45 | 46.26578 | 14.80574 | 33938 ft | 431 kts | 318° |
| 2026-05-06 16:46 | 46.31314 | 14.75248 | 33937 ft | 431 kts | 318° |
| 2026-05-06 16:46 | 46.36078 | 14.69871 | 33925 ft | 432 kts | 318° |
| 2026-05-06 16:47 | 46.40784 | 14.64546 | 33917 ft | 432 kts | 318° |
| 2026-05-06 16:47 | 46.45524 | 14.59175 | 33910 ft | 433 kts | 318° |
| 2026-05-06 16:48 | 46.50268 | 14.53796 | 33876 ft | 433 kts | 318° |
| 2026-05-06 16:48 | 46.55010 | 14.48407 | 33869 ft | 433 kts | 318° |
| 2026-05-06 16:49 | 46.59754 | 14.42994 | 33869 ft | 434 kts | 318° |
| 2026-05-06 16:49 | 46.64498 | 14.37577 | 33868 ft | 434 kts | 318° |
| 2026-05-06 16:50 | 46.69242 | 14.32141 | 33868 ft | 434 kts | 317° |
| 2026-05-06 16:50 | 46.73992 | 14.26687 | 33868 ft | 435 kts | 317° |
| 2026-05-06 16:51 | 46.78733 | 14.21220 | 33867 ft | 435 kts | 317° |
| 2026-05-06 16:51 | 46.83475 | 14.15733 | 33863 ft | 435 kts | 317° |
| 2026-05-06 16:52 | 46.88212 | 14.10251 | 33859 ft | 435 kts | 317° |
| 2026-05-06 16:52 | 46.92960 | 14.04751 | 33857 ft | 435 kts | 317° |
| 2026-05-06 16:53 | 46.97706 | 13.99240 | 33861 ft | 435 kts | 317° |
| 2026-05-06 16:53 | 47.02440 | 13.93717 | 33855 ft | 435 kts | 317° |
| 2026-05-06 16:54 | 47.07175 | 13.88191 | 33847 ft | 435 kts | 317° |
| 2026-05-06 16:54 | 47.11910 | 13.82646 | 33834 ft | 435 kts | 317° |
| 2026-05-06 16:54 | 47.14245 | 13.79909 | 33550 ft | 434 kts | 317° |
| 2026-05-06 16:55 | 47.16579 | 13.77178 | 33297 ft | 423 kts | 317° |
| 2026-05-06 16:55 | 47.18849 | 13.74523 | 33090 ft | 412 kts | 317° |
| 2026-05-06 16:55 | 47.21071 | 13.71919 | 32822 ft | 404 kts | 317° |
| 2026-05-06 16:55 | 47.23262 | 13.69338 | 32170 ft | 407 kts | 317° |
| 2026-05-06 16:56 | 47.25527 | 13.66647 | 31316 ft | 431 kts | 317° |
| 2026-05-06 16:56 | 47.27930 | 13.63785 | 30479 ft | 443 kts | 317° |
| 2026-05-06 16:56 | 47.30307 | 13.60965 | 29967 ft | 447 kts | 317° |
| 2026-05-06 16:56 | 47.32736 | 13.58097 | 29315 ft | 447 kts | 317° |
| 2026-05-06 16:57 | 47.35158 | 13.55241 | 28731 ft | 445 kts | 317° |
| 2026-05-06 16:57 | 47.37569 | 13.52392 | 28157 ft | 443 kts | 317° |
| 2026-05-06 16:57 | 47.39961 | 13.49560 | 27578 ft | 440 kts | 317° |
| 2026-05-06 16:57 | 47.42339 | 13.46740 | 27015 ft | 437 kts | 317° |
| 2026-05-06 16:58 | 47.44696 | 13.43932 | 26447 ft | 434 kts | 317° |
| 2026-05-06 16:58 | 47.47035 | 13.41136 | 25888 ft | 431 kts | 317° |
| 2026-05-06 16:58 | 47.49359 | 13.38358 | 25330 ft | 428 kts | 317° |
| 2026-05-06 16:58 | 47.51666 | 13.35592 | 24789 ft | 426 kts | 317° |
| 2026-05-06 16:59 | 47.53947 | 13.32834 | 24253 ft | 422 kts | 317° |
| 2026-05-06 16:59 | 47.56211 | 13.30083 | 23745 ft | 419 kts | 317° |
| 2026-05-06 16:59 | 47.58458 | 13.27350 | 23220 ft | 417 kts | 317° |
| 2026-05-06 16:59 | 47.60692 | 13.24632 | 22717 ft | 413 kts | 317° |
| 2026-05-06 17:00 | 47.62904 | 13.21943 | 22245 ft | 410 kts | 317° |
| 2026-05-06 17:00 | 47.65102 | 13.19271 | 21812 ft | 407 kts | 317° |
| 2026-05-06 17:00 | 47.67282 | 13.16616 | 21364 ft | 404 kts | 317° |
| 2026-05-06 17:00 | 47.69440 | 13.13979 | 20939 ft | 401 kts | 317° |
| 2026-05-06 17:01 | 47.71587 | 13.11352 | 20510 ft | 398 kts | 317° |
| 2026-05-06 17:01 | 47.73716 | 13.08748 | 20072 ft | 395 kts | 317° |
| 2026-05-06 17:01 | 47.75831 | 13.06161 | 19630 ft | 392 kts | 317° |
| 2026-05-06 17:01 | 47.77933 | 13.03592 | 19190 ft | 390 kts | 317° |
| 2026-05-06 17:02 | 47.80019 | 13.01040 | 18737 ft | 387 kts | 317° |
| 2026-05-06 17:02 | 47.82081 | 12.98506 | 18288 ft | 384 kts | 317° |
| 2026-05-06 17:02 | 47.84137 | 12.95973 | 17790 ft | 382 kts | 317° |
| 2026-05-06 17:02 | 47.86175 | 12.93462 | 17334 ft | 378 kts | 317° |
| 2026-05-06 17:03 | 47.88191 | 12.90974 | 16872 ft | 375 kts | 317° |
| 2026-05-06 17:03 | 47.90196 | 12.88501 | 16422 ft | 372 kts | 317° |
| 2026-05-06 17:03 | 47.92183 | 12.86050 | 15982 ft | 370 kts | 317° |
| 2026-05-06 17:03 | 47.94152 | 12.83607 | 15529 ft | 366 kts | 315° |
| 2026-05-06 17:04 | 47.95877 | 12.80861 | 15079 ft | 360 kts | 304° |
| 2026-05-06 17:04 | 47.97228 | 12.77756 | 14643 ft | 355 kts | 297° |
| 2026-05-06 17:04 | 47.98476 | 12.74595 | 14227 ft | 352 kts | 298° |
| 2026-05-06 17:04 | 47.99721 | 12.71457 | 13801 ft | 350 kts | 298° |
| 2026-05-06 17:05 | 48.00555 | 12.69357 | 13506 ft | 348 kts | 298° |
| 2026-05-06 17:05 | 48.02183 | 12.65263 | 12912 ft | 344 kts | 298° |
| 2026-05-06 17:05 | 48.02988 | 12.63236 | 12626 ft | 342 kts | 298° |
| 2026-05-06 17:05 | 48.04198 | 12.60189 | 12212 ft | 339 kts | 298° |
| 2026-05-06 17:06 | 48.05395 | 12.57173 | 11793 ft | 337 kts | 298° |
| 2026-05-06 17:06 | 48.06604 | 12.54132 | 11346 ft | 334 kts | 298° |
| 2026-05-06 17:06 | 48.07792 | 12.51155 | 10915 ft | 333 kts | 298° |
| 2026-05-06 17:06 | 48.08976 | 12.48191 | 10486 ft | 331 kts | 298° |
| 2026-05-06 17:07 | 48.10151 | 12.45251 | 10204 ft | 325 kts | 297° |
| 2026-05-06 17:07 | 48.11291 | 12.42403 | 10077 ft | 313 kts | 297° |
| 2026-05-06 17:07 | 48.12392 | 12.39658 | 9961 ft | 300 kts | 297° |
| 2026-05-06 17:07 | 48.13470 | 12.37130 | 9821 ft | 279 kts | 307° |
| 2026-05-06 17:08 | 48.14971 | 12.35374 | 9529 ft | 275 kts | 330° |
| 2026-05-06 17:08 | 48.16695 | 12.34225 | 9353 ft | 267 kts | 334° |
| 2026-05-06 17:08 | 48.18402 | 12.33179 | 9055 ft | 264 kts | 335° |
| 2026-05-06 17:08 | 48.20075 | 12.32161 | 8759 ft | 262 kts | 335° |
| 2026-05-06 17:09 | 48.21757 | 12.31133 | 8456 ft | 260 kts | 334° |
| 2026-05-06 17:09 | 48.23425 | 12.30112 | 8117 ft | 259 kts | 334° |
| 2026-05-06 17:09 | 48.25083 | 12.29098 | 7799 ft | 257 kts | 335° |
| 2026-05-06 17:09 | 48.26653 | 12.27873 | 7460 ft | 251 kts | 319° |
| 2026-05-06 17:10 | 48.27994 | 12.26205 | 7154 ft | 250 kts | 315° |
| 2026-05-06 17:10 | 48.29284 | 12.24471 | 6850 ft | 248 kts | 314° |
| 2026-05-06 17:10 | 48.30472 | 12.22635 | 6512 ft | 242 kts | 300° |
| 2026-05-06 17:10 | 48.31344 | 12.20501 | 5968 ft | 239 kts | 298° |
| 2026-05-06 17:11 | 48.32196 | 12.18376 | 5422 ft | 236 kts | 299° |
| 2026-05-06 17:11 | 48.33034 | 12.16286 | 5354 ft | 234 kts | 300° |
| 2026-05-06 17:11 | 48.33887 | 12.14160 | 5303 ft | 234 kts | 299° |
| 2026-05-06 17:11 | 48.34716 | 12.12091 | 5225 ft | 234 kts | 300° |
| 2026-05-06 17:12 | 48.35554 | 12.09993 | 5127 ft | 233 kts | 300° |
| 2026-05-06 17:12 | 48.36247 | 12.07827 | 5029 ft | 226 kts | 284° |
| 2026-05-06 17:12 | 48.36374 | 12.05550 | 4813 ft | 218 kts | 265° |
| 2026-05-06 17:12 | 48.36208 | 12.03315 | 4486 ft | 210 kts | 264° |
| 2026-05-06 17:13 | 48.36041 | 12.01185 | 4200 ft | 201 kts | 265° |
| 2026-05-06 17:13 | 48.35885 | 11.99111 | 3931 ft | 198 kts | 265° |
| 2026-05-06 17:13 | 48.35732 | 11.97070 | 3671 ft | 193 kts | 266° |
| 2026-05-06 17:13 | 48.35587 | 11.95138 | 3434 ft | 179 kts | 266° |
| 2026-05-06 17:14 | 48.35451 | 11.93341 | 3216 ft | 166 kts | 267° |
| 2026-05-06 17:14 | 48.35325 | 11.91660 | 2981 ft | 157 kts | 266° |
| 2026-05-06 17:14 | 48.35206 | 11.90087 | 2778 ft | 147 kts | 268° |
| 2026-05-06 17:14 | 48.35093 | 11.88579 | 2583 ft | 144 kts | 268° |
| 2026-05-06 17:15 | 48.34988 | 11.87097 | 2396 ft | 142 kts | 267° |
| 2026-05-06 17:15 | 48.34878 | 11.85622 | 2179 ft | 141 kts | 264° |
| 2026-05-06 17:15 | 48.34765 | 11.84164 | 1999 ft | 140 kts | 263° |
| 2026-05-06 17:15 | 48.34652 | 11.82705 | 1811 ft | 142 kts | 263° |
| 2026-05-06 17:16 | 48.34542 | 11.81247 | 1632 ft | 140 kts | 263° |
| 2026-05-06 17:16 | 48.34431 | 11.79805 | 1497 ft | 132 kts | 263° |
| 2026-05-06 17:16 | 48.34335 | 11.78585 | 1472 ft | 96 kts | 263° |
| 2026-05-06 17:16 | 48.34280 | 11.77861 | 1485 ft | 48 kts | 263° |
| 2026-05-06 17:17 | 48.34251 | 11.77401 | 1485 ft | 40 kts | 270° |
| 2026-05-06 17:17 | 48.34319 | 11.77049 | 1483 ft | 29 kts | 293° |
| 2026-05-06 17:17 | 48.34389 | 11.76808 | 1484 ft | 21 kts | 295° |
| 2026-05-06 17:17 | 48.34460 | 11.76706 | 1479 ft | 13 kts | 345° |
| 2026-05-06 17:18 | 48.34539 | 11.76692 | 1479 ft | 10 kts | 2° |
| 2026-05-06 17:18 | 48.34574 | 11.76754 | 1482 ft | 8 kts | 76° |
| 2026-05-06 17:18 | 48.34584 | 11.76864 | 1476 ft | 11 kts | 84° |
| 2026-05-06 17:18 | 48.34592 | 11.76976 | 1485 ft | 11 kts | 84° |
| 2026-05-06 17:19 | 48.34601 | 11.77092 | 1485 ft | 12 kts | 83° |
| 2026-05-06 17:19 | 48.34612 | 11.77226 | 1478 ft | 12 kts | 83° |
| 2026-05-06 17:19 | 48.34621 | 11.77353 | 1479 ft | 13 kts | 83° |
| 2026-05-06 17:19 | 48.34631 | 11.77477 | 1481 ft | 12 kts | 83° |
| 2026-05-06 17:20 | 48.34644 | 11.77644 | 1485 ft | 18 kts | 83° |
| 2026-05-06 17:20 | 48.34657 | 11.77816 | 1482 ft | 12 kts | 83° |
| 2026-05-06 17:20 | 48.34695 | 11.77894 | 1483 ft | 9 kts | 8° |
| 2026-05-06 17:20 | 48.34761 | 11.77885 | 1481 ft | 11 kts | 353° |
| 2026-05-06 17:21 | 48.34838 | 11.77871 | 1483 ft | 11 kts | 354° |
| 2026-05-06 17:21 | 48.34912 | 11.77859 | 1483 ft | 12 kts | 353° |
| 2026-05-06 17:21 | 48.34995 | 11.77845 | 1480 ft | 12 kts | 353° |
| 2026-05-06 17:21 | 48.35083 | 11.77829 | 1474 ft | 16 kts | 353° |
| 2026-05-06 17:22 | 48.35170 | 11.77846 | 1484 ft | 11 kts | 47° |
| 2026-05-06 17:22 | 48.35187 | 11.77954 | 1473 ft | 10 kts | 83° |
| 2026-05-06 17:22 | 48.35195 | 11.78054 | 1483 ft | 9 kts | 83° |
| 2026-05-06 17:22 | 48.35198 | 11.78139 | 1473 ft | 9 kts | 100° |
| 2026-05-06 17:23 | 48.35147 | 11.78194 | 1478 ft | 10 kts | 171° |
| 2026-05-06 17:23 | 48.35087 | 11.78206 | 1476 ft | 9 kts | 173° |
| 2026-05-06 17:23 | 48.35018 | 11.78217 | 1485 ft | 11 kts | 174° |
| 2026-05-06 17:23 | 48.34952 | 11.78228 | 1479 ft | 8 kts | 173° |
| 2026-05-06 17:24 | 48.34898 | 11.78233 | 1480 ft | 8 kts | 159° |
| 2026-05-06 17:24 | 48.34864 | 11.78309 | 1480 ft | 8 kts | 111° |
| 2026-05-06 17:24 | 48.34862 | 11.78369 | 1485 ft | 3 kts | 83° |
| 2026-05-06 17:24 | 48.34863 | 11.78384 | 1485 ft | 1 kts | 82° |
| 2026-05-06 17:25 | 48.34865 | 11.78401 | 1485 ft | 1 kts | 83° |
| 2026-05-06 17:25 | 48.34865 | 11.78402 | 1485 ft | 0 kts | 83° |